Time,TemperatureF,DewpointF,PressureIn,WindDirection,WindDirectionDegrees,WindSpeedMPH,WindSpeedGustMPH,Humidity,HourlyPrecipIn,Conditions,Clouds,dailyrainin,SoftwareType,DateUTC
2013-03-10 00:05:00,36.5,19.1,30.17,SW,232,0.0,1.0,49,0.00,,,0.00,Wunderground v.1.15,2013-03-10 07:05:00,
2013-03-10 00:11:00,36.4,19.0,30.17,SW,233,1.0,1.0,49,0.00,,,0.00,Wunderground v.1.15,2013-03-10 07:11:00,
2013-03-10 00:17:00,36.4,19.0,30.17,SW,233,1.0,2.0,49,0.00,,,0.00,Wunderground v.1.15,2013-03-10 07:17:00,
2013-03-10 00:23:00,36.3,19.4,30.17,SW,233,0.0,0.0,50,0.00,,,0.00,Wunderground v.1.15,2013-03-10 07:23:00,
2013-03-10 00:28:00,36.2,18.9,30.17,SW,233,0.0,3.0,49,0.00,,,0.00,Wunderground v.1.15,2013-03-10 07:28:00,
2013-03-10 00:34:00,36.3,18.9,30.17,SW,233,0.0,0.0,49,0.00,,,0.00,Wunderground v.1.15,2013-03-10 07:34:00,
2013-03-10 00:40:00,36.3,18.9,30.17,SW,233,0.0,0.0,49,0.00,,,0.00,Wunderground v.1.15,2013-03-10 07:40:00,
2013-03-10 00:45:00,36.0,19.1,30.17,SW,233,0.0,0.0,50,0.00,,,0.00,Wunderground v.1.15,2013-03-10 07:45:00,
2013-03-10 00:50:00,35.5,19.6,30.18,SW,233,0.0,0.0,52,0.00,,,0.00,Wunderground v.1.15,2013-03-10 07:50:00,
2013-03-10 00:56:00,34.9,19.5,30.18,SW,233,0.0,0.0,53,0.00,,,0.00,Wunderground v.1.15,2013-03-10 07:56:00,
2013-03-10 01:02:00,34.8,19.4,30.18,SW,233,0.0,0.0,53,0.00,,,0.00,Wunderground v.1.15,2013-03-10 08:02:00,
2013-03-10 01:09:00,34.8,19.4,30.18,SW,233,0.0,1.0,53,0.00,,,0.00,Wunderground v.1.15,2013-03-10 08:09:00,
2013-03-10 01:15:00,34.6,19.2,30.18,SW,233,0.0,0.0,53,0.00,,,0.00,Wunderground v.1.15,2013-03-10 08:15:00,
2013-03-10 01:21:00,34.9,19.0,30.18,SW,233,0.0,0.0,52,0.00,,,0.00,Wunderground v.1.15,2013-03-10 08:21:00,
2013-03-10 01:27:00,35.2,19.3,30.19,SW,233,0.0,2.0,52,0.00,,,0.00,Wunderground v.1.15,2013-03-10 08:27:00,
2013-03-10 01:33:00,34.7,19.3,30.19,SW,233,0.0,0.0,53,0.00,,,0.00,Wunderground v.1.15,2013-03-10 08:33:00,
2013-03-10 01:39:00,34.4,19.5,30.19,SW,233,0.0,0.0,54,0.00,,,0.00,Wunderground v.1.15,2013-03-10 08:39:00,
2013-03-10 01:45:00,34.8,18.9,30.19,SW,236,1.0,1.0,52,0.00,,,0.00,Wunderground v.1.15,2013-03-10 08:45:00,
2013-03-10 01:50:00,35.4,19.9,30.19,West,269,1.0,2.0,53,0.00,,,0.00,Wunderground v.1.15,2013-03-10 08:50:00,
2013-03-10 01:56:00,34.9,19.9,30.19,West,269,0.0,1.0,54,0.00,,,0.00,Wunderground v.1.15,2013-03-10 08:56:00,
2013-03-10 03:01:00,34.4,19.5,30.19,NW,312,3.0,3.0,54,0.00,,,0.00,Wunderground v.1.15,2013-03-10 09:01:00,
2013-03-10 03:08:00,34.7,18.9,30.19,West,269,0.0,7.0,52,0.00,,,0.00,Wunderground v.1.15,2013-03-10 09:08:00,
2013-03-10 03:13:00,35.2,18.9,30.19,West,279,1.0,9.0,51,0.00,,,0.00,Wunderground v.1.15,2013-03-10 09:13:00,
2013-03-10 03:18:00,35.5,18.7,30.19,West,277,6.0,9.0,50,0.00,,,0.00,Wunderground v.1.15,2013-03-10 09:18:00,
2013-03-10 03:24:00,35.6,18.8,30.19,SW,227,1.0,5.0,50,0.00,,,0.00,Wunderground v.1.15,2013-03-10 09:24:00,
2013-03-10 03:29:00,35.8,18.0,30.19,SW,230,0.0,5.0,48,0.00,,,0.00,Wunderground v.1.15,2013-03-10 09:29:00,
2013-03-10 03:34:00,35.7,17.9,30.20,SW,231,3.0,4.0,48,0.00,,,0.00,Wunderground v.1.15,2013-03-10 09:34:00,
2013-03-10 03:39:00,35.9,18.1,30.20,West,271,6.0,6.0,48,0.00,,,0.00,Wunderground v.1.15,2013-03-10 09:39:00,
2013-03-10 03:45:00,36.0,17.7,30.20,NW,319,6.0,6.0,47,0.00,,,0.00,Wunderground v.1.15,2013-03-10 09:45:00,
2013-03-10 03:50:00,36.0,17.7,30.20,SW,234,2.0,2.0,47,0.00,,,0.00,Wunderground v.1.15,2013-03-10 09:50:00,
2013-03-10 03:55:00,35.9,17.1,30.20,SW,223,3.0,5.0,46,0.00,,,0.00,Wunderground v.1.15,2013-03-10 09:55:00,
2013-03-10 04:00:00,35.9,17.6,30.20,SW,226,2.0,3.0,47,0.00,,,0.00,Wunderground v.1.15,2013-03-10 10:00:00,
2013-03-10 04:05:00,35.6,16.8,30.20,West,265,3.0,4.0,46,0.00,,,0.00,Wunderground v.1.15,2013-03-10 10:05:00,
2013-03-10 04:10:00,35.8,17.0,30.20,SW,217,0.0,2.0,46,0.00,,,0.00,Wunderground v.1.15,2013-03-10 10:10:00,
2013-03-10 04:15:00,35.7,16.9,30.20,West,273,0.0,6.0,46,0.00,,,0.00,Wunderground v.1.15,2013-03-10 10:15:00,
2013-03-10 04:21:00,35.7,16.4,30.21,West,273,0.0,1.0,45,0.00,,,0.00,Wunderground v.1.15,2013-03-10 10:21:00,
2013-03-10 04:27:00,35.4,16.6,30.22,West,273,0.0,1.0,46,0.00,,,0.00,Wunderground v.1.15,2013-03-10 10:27:00,
2013-03-10 04:32:00,35.2,17.0,30.22,West,273,1.0,3.0,47,0.00,,,0.00,Wunderground v.1.15,2013-03-10 10:32:00,
2013-03-10 04:38:00,35.2,16.5,30.22,West,275,1.0,5.0,46,0.00,,,0.00,Wunderground v.1.15,2013-03-10 10:38:00,
2013-03-10 04:43:00,35.2,17.0,30.23,West,277,2.0,2.0,47,0.00,,,0.00,Wunderground v.1.15,2013-03-10 10:43:00,
2013-03-10 04:49:00,34.9,17.7,30.23,West,276,0.0,2.0,49,0.00,,,0.00,Wunderground v.1.15,2013-03-10 10:49:00,
2013-03-10 04:54:00,34.4,17.7,30.23,West,276,2.0,2.0,50,0.00,,,0.00,Wunderground v.1.15,2013-03-10 10:54:00,
2013-03-10 04:59:00,34.5,17.3,30.24,SW,231,0.0,2.0,49,0.00,,,0.00,Wunderground v.1.15,2013-03-10 10:59:00,
2013-03-10 05:06:00,34.4,17.2,30.24,SW,235,2.0,2.0,49,0.00,,,0.00,Wunderground v.1.15,2013-03-10 11:06:00,
2013-03-10 05:12:00,33.4,19.8,30.24,ESE,106,3.0,5.0,57,0.00,,,0.00,Wunderground v.1.15,2013-03-10 11:12:00,
2013-03-10 05:17:00,32.0,19.3,30.24,SW,220,2.0,5.0,59,0.00,,,0.00,Wunderground v.1.15,2013-03-10 11:17:00,
2013-03-10 05:22:00,31.3,19.0,30.25,North,360,2.0,3.0,60,0.00,,,0.00,Wunderground v.1.15,2013-03-10 11:22:00,
2013-03-10 05:28:00,30.9,19.0,30.25,North,355,0.0,3.0,61,0.00,,,0.00,Wunderground v.1.15,2013-03-10 11:28:00,
2013-03-10 05:33:00,30.5,19.0,30.25,North,355,1.0,2.0,62,0.00,,,0.00,Wunderground v.1.15,2013-03-10 11:33:00,
2013-03-10 05:39:00,30.1,19.0,30.25,North,355,0.0,3.0,63,0.00,,,0.00,Wunderground v.1.15,2013-03-10 11:39:00,
2013-03-10 05:45:00,30.0,18.5,30.26,North,355,0.0,1.0,62,0.00,,,0.00,Wunderground v.1.15,2013-03-10 11:45:00,
2013-03-10 05:50:00,29.7,18.6,30.26,North,355,0.0,0.0,63,0.00,,,0.00,Wunderground v.1.15,2013-03-10 11:50:00,
2013-03-10 05:56:00,29.5,18.4,30.26,North,355,0.0,0.0,63,0.00,,,0.00,Wunderground v.1.15,2013-03-10 11:56:00,
2013-03-10 06:01:00,29.4,18.3,30.27,North,355,0.0,2.0,63,0.00,,,0.00,Wunderground v.1.15,2013-03-10 12:01:00,
2013-03-10 06:07:00,29.6,18.5,30.27,North,355,0.0,2.0,63,0.00,,,0.00,Wunderground v.1.15,2013-03-10 12:07:00,
2013-03-10 06:12:00,29.4,18.7,30.27,North,355,0.0,2.0,64,0.00,,,0.00,Wunderground v.1.15,2013-03-10 12:12:00,
2013-03-10 06:17:00,29.1,18.4,30.27,North,355,1.0,2.0,64,0.00,,,0.00,Wunderground v.1.15,2013-03-10 12:17:00,
2013-03-10 06:22:00,28.8,18.1,30.27,North,355,0.0,0.0,64,0.00,,,0.00,Wunderground v.1.15,2013-03-10 12:22:00,
2013-03-10 06:28:00,29.2,18.2,30.27,North,355,3.0,3.0,63,0.00,,,0.00,Wunderground v.1.15,2013-03-10 12:28:00,
2013-03-10 06:35:00,29.7,19.0,30.27,North,355,0.0,1.0,64,0.00,,,0.00,Wunderground v.1.15,2013-03-10 12:35:00,
2013-03-10 06:41:00,30.0,18.9,30.28,North,355,0.0,2.0,63,0.00,,,0.00,Wunderground v.1.15,2013-03-10 12:41:00,
2013-03-10 06:46:00,29.8,18.7,30.28,North,355,0.0,2.0,63,0.00,,,0.00,Wunderground v.1.15,2013-03-10 12:46:00,
2013-03-10 06:51:00,29.7,18.6,30.28,North,355,0.0,1.0,63,0.00,,,0.00,Wunderground v.1.15,2013-03-10 12:51:00,
2013-03-10 06:56:00,29.6,18.5,30.28,North,355,0.0,1.0,63,0.00,,,0.00,Wunderground v.1.15,2013-03-10 12:56:00,
2013-03-10 07:01:00,29.3,18.3,30.28,North,355,2.0,3.0,63,0.00,,,0.00,Wunderground v.1.15,2013-03-10 13:01:00,
2013-03-10 07:06:00,29.2,18.9,30.28,North,355,1.0,3.0,65,0.00,,,0.00,Wunderground v.1.15,2013-03-10 13:06:00,
2013-03-10 07:12:00,29.5,18.4,30.28,North,355,0.0,2.0,63,0.00,,,0.00,Wunderground v.1.15,2013-03-10 13:12:00,
2013-03-10 07:17:00,30.3,18.1,30.28,North,355,3.0,3.0,60,0.00,,,0.00,Wunderground v.1.15,2013-03-10 13:17:00,
2013-03-10 07:22:00,30.3,18.8,30.29,North,355,0.0,2.0,62,0.00,,,0.00,Wunderground v.1.15,2013-03-10 13:22:00,
2013-03-10 07:27:00,30.0,18.5,30.29,North,355,0.0,2.0,62,0.00,,,0.00,Wunderground v.1.15,2013-03-10 13:27:00,
2013-03-10 07:33:00,29.7,18.6,30.29,North,355,1.0,1.0,63,0.00,,,0.00,Wunderground v.1.15,2013-03-10 13:33:00,
2013-03-10 07:38:00,29.5,18.8,30.29,North,355,0.0,2.0,64,0.00,,,0.00,Wunderground v.1.15,2013-03-10 13:38:00,
2013-03-10 07:45:00,29.1,18.4,30.30,North,355,1.0,1.0,64,0.00,,,0.00,Wunderground v.1.15,2013-03-10 13:45:00,
2013-03-10 07:50:00,29.0,18.3,30.30,North,355,1.0,1.0,64,0.00,,,0.00,Wunderground v.1.15,2013-03-10 13:50:00,
2013-03-10 07:55:00,29.5,18.1,30.30,North,355,1.0,2.0,62,0.00,,,0.00,Wunderground v.1.15,2013-03-10 13:55:00,
2013-03-10 08:00:00,29.9,18.5,30.30,North,355,2.0,2.0,62,0.00,,,0.00,Wunderground v.1.15,2013-03-10 14:00:00,
2013-03-10 08:05:00,30.3,19.2,30.30,North,355,0.0,2.0,63,0.00,,,0.00,Wunderground v.1.15,2013-03-10 14:05:00,
2013-03-10 08:10:00,30.8,18.5,30.30,North,355,2.0,2.0,60,0.00,,,0.00,Wunderground v.1.15,2013-03-10 14:10:00,
2013-03-10 08:16:00,31.3,19.8,30.31,North,355,1.0,4.0,62,0.00,,,0.00,Wunderground v.1.15,2013-03-10 14:16:00,
2013-03-10 08:22:00,31.9,20.0,30.31,North,355,3.0,3.0,61,0.00,,,0.00,Wunderground v.1.15,2013-03-10 14:22:00,
2013-03-10 08:28:00,32.4,20.0,30.31,North,355,0.0,3.0,60,0.00,,,0.00,Wunderground v.1.15,2013-03-10 14:28:00,
2013-03-10 08:33:00,33.3,21.7,30.31,North,355,0.0,1.0,62,0.00,,,0.00,Wunderground v.1.15,2013-03-10 14:33:00,
2013-03-10 08:38:00,34.1,22.0,30.31,North,355,0.0,2.0,61,0.00,,,0.00,Wunderground v.1.15,2013-03-10 14:38:00,
2013-03-10 08:43:00,34.4,21.1,30.31,North,355,0.0,0.0,58,0.00,,,0.00,Wunderground v.1.15,2013-03-10 14:43:00,
2013-03-10 08:48:00,35.0,20.9,30.32,North,355,0.0,0.0,56,0.00,,,0.00,Wunderground v.1.15,2013-03-10 14:48:00,
2013-03-10 08:54:00,35.8,23.3,30.32,North,350,3.0,3.0,60,0.00,,,0.00,Wunderground v.1.15,2013-03-10 14:54:00,
2013-03-10 09:00:00,35.8,23.3,30.32,NNW,348,3.0,3.0,60,0.00,,,0.00,Wunderground v.1.15,2013-03-10 15:00:00,
2013-03-10 09:05:00,35.2,22.7,30.32,NNW,338,3.0,4.0,60,0.00,,,0.00,Wunderground v.1.15,2013-03-10 15:05:00,
2013-03-10 09:11:00,34.6,22.9,30.33,NNW,338,1.0,1.0,62,0.00,,,0.00,Wunderground v.1.15,2013-03-10 15:11:00,
2013-03-10 09:16:00,34.8,23.5,30.33,NNW,338,0.0,3.0,63,0.00,,,0.00,Wunderground v.1.15,2013-03-10 15:16:00,
2013-03-10 09:22:00,35.2,24.2,30.33,NNW,338,1.0,2.0,64,0.00,,,0.00,Wunderground v.1.15,2013-03-10 15:22:00,
2013-03-10 09:29:00,35.7,24.3,30.33,NNW,331,2.0,2.0,63,0.00,,,0.00,Wunderground v.1.15,2013-03-10 15:29:00,
2013-03-10 09:34:00,35.9,24.1,30.33,NW,314,1.0,4.0,62,0.00,,,0.00,Wunderground v.1.15,2013-03-10 15:34:00,
2013-03-10 09:39:00,36.4,23.8,30.33,NW,317,0.0,4.0,60,0.00,,,0.00,Wunderground v.1.15,2013-03-10 15:39:00,
2013-03-10 09:45:00,37.1,22.0,30.33,NW,316,2.0,4.0,54,0.00,,,0.00,Wunderground v.1.15,2013-03-10 15:45:00,
2013-03-10 09:50:00,37.9,24.0,30.33,NNW,343,1.0,2.0,57,0.00,,,0.00,Wunderground v.1.15,2013-03-10 15:50:00,
2013-03-10 09:56:00,38.3,21.7,30.33,NNW,342,2.0,3.0,51,0.00,,,0.00,Wunderground v.1.15,2013-03-10 15:56:00,
2013-03-10 10:02:00,38.7,20.7,30.33,NNW,340,1.0,2.0,48,0.00,,,0.00,Wunderground v.1.15,2013-03-10 16:02:00,
2013-03-10 10:08:00,39.2,21.6,30.33,NNW,332,3.0,5.0,49,0.00,,,0.00,Wunderground v.1.15,2013-03-10 16:08:00,
2013-03-10 10:14:00,39.5,22.4,30.33,NNW,348,2.0,4.0,50,0.00,,,0.00,Wunderground v.1.15,2013-03-10 16:14:00,
2013-03-10 10:19:00,39.9,20.8,30.33,West,261,0.0,4.0,46,0.00,,,0.00,Wunderground v.1.15,2013-03-10 16:19:00,
2013-03-10 10:25:00,40.3,20.1,30.33,West,264,2.0,2.0,44,0.00,,,0.00,Wunderground v.1.15,2013-03-10 16:25:00,
2013-03-10 10:30:00,40.9,20.6,30.33,West,266,1.0,1.0,44,0.00,,,0.00,Wunderground v.1.15,2013-03-10 16:30:00,
2013-03-10 10:35:00,41.1,20.3,30.33,West,275,4.0,4.0,43,0.00,,,0.00,Wunderground v.1.15,2013-03-10 16:35:00,
2013-03-10 10:40:00,41.2,19.2,30.32,SW,219,3.0,3.0,41,0.00,,,0.00,Wunderground v.1.15,2013-03-10 16:40:00,
2013-03-10 10:45:00,41.1,21.3,30.32,ESE,108,1.0,3.0,45,0.00,,,0.00,Wunderground v.1.15,2013-03-10 16:45:00,
2013-03-10 10:51:00,41.8,20.9,30.32,ESE,107,2.0,2.0,43,0.00,,,0.00,Wunderground v.1.15,2013-03-10 16:51:00,
2013-03-10 10:57:00,42.4,22.0,30.32,ESE,107,0.0,3.0,44,0.00,,,0.00,Wunderground v.1.15,2013-03-10 16:57:00,
2013-03-10 11:02:00,42.6,20.5,30.32,SW,225,2.0,2.0,41,0.00,,,0.00,Wunderground v.1.15,2013-03-10 17:02:00,
2013-03-10 11:08:00,41.8,19.2,30.32,SW,224,1.0,4.0,40,0.00,,,0.00,Wunderground v.1.15,2013-03-10 17:08:00,
2013-03-10 11:13:00,41.7,19.7,30.32,East,95,3.0,3.0,41,0.00,,,0.00,Wunderground v.1.15,2013-03-10 17:13:00,
2013-03-10 11:18:00,42.3,19.7,30.32,SE,146,0.0,4.0,40,0.00,,,0.00,Wunderground v.1.15,2013-03-10 17:18:00,
2013-03-10 11:25:00,42.6,20.5,30.33,SSW,211,0.0,3.0,41,0.00,,,0.00,Wunderground v.1.15,2013-03-10 17:25:00,
2013-03-10 11:31:00,43.3,21.1,30.33,East,80,0.0,1.0,41,0.00,,,0.00,Wunderground v.1.15,2013-03-10 17:31:00,
2013-03-10 11:37:00,43.6,21.4,30.32,ENE,57,6.0,6.0,41,0.00,,,0.00,Wunderground v.1.15,2013-03-10 17:37:00,
2013-03-10 11:42:00,42.7,20.6,30.32,ENE,59,3.0,7.0,41,0.00,,,0.00,Wunderground v.1.15,2013-03-10 17:42:00,
2013-03-10 11:47:00,42.8,21.8,30.32,NE,46,6.0,7.0,43,0.00,,,0.00,Wunderground v.1.15,2013-03-10 17:47:00,
2013-03-10 11:52:00,42.5,20.4,30.32,NE,53,2.0,5.0,41,0.00,,,0.00,Wunderground v.1.15,2013-03-10 17:52:00,
2013-03-10 11:57:00,42.5,20.4,30.32,ENE,57,0.0,7.0,41,0.00,,,0.00,Wunderground v.1.15,2013-03-10 17:57:00,
2013-03-10 12:03:00,43.0,22.0,30.32,ENE,66,2.0,4.0,43,0.00,,,0.00,Wunderground v.1.15,2013-03-10 18:03:00,
2013-03-10 12:08:00,43.4,22.4,30.32,ENE,62,0.0,6.0,43,0.00,,,0.00,Wunderground v.1.15,2013-03-10 18:08:00,
2013-03-10 12:13:00,43.7,20.3,30.32,WSW,246,4.0,5.0,39,0.00,,,0.00,Wunderground v.1.15,2013-03-10 18:13:00,
2013-03-10 12:19:00,43.3,21.1,30.31,SW,220,4.0,5.0,41,0.00,,,0.00,Wunderground v.1.15,2013-03-10 18:19:00,
2013-03-10 12:24:00,43.1,19.8,30.31,South,174,0.0,3.0,39,0.00,,,0.00,Wunderground v.1.15,2013-03-10 18:24:00,
2013-03-10 12:29:00,43.4,20.1,30.31,SW,219,0.0,6.0,39,0.00,,,0.00,Wunderground v.1.15,2013-03-10 18:29:00,
2013-03-10 12:34:00,43.6,20.8,30.30,NW,321,0.0,7.0,40,0.00,,,0.00,Wunderground v.1.15,2013-03-10 18:34:00,
2013-03-10 12:40:00,44.0,22.4,30.30,NNW,331,0.0,7.0,42,0.00,,,0.00,Wunderground v.1.15,2013-03-10 18:40:00,
2013-03-10 12:45:00,45.0,21.5,30.30,NNW,330,1.0,3.0,39,0.00,,,0.00,Wunderground v.1.15,2013-03-10 18:45:00,
2013-03-10 12:50:00,45.3,22.4,30.29,NNE,22,1.0,5.0,40,0.00,,,0.00,Wunderground v.1.15,2013-03-10 18:50:00,
2013-03-10 12:56:00,45.8,22.8,30.29,NE,39,0.0,4.0,40,0.00,,,0.00,Wunderground v.1.15,2013-03-10 18:56:00,
2013-03-10 13:01:00,46.3,23.3,30.29,NE,51,4.0,5.0,40,0.00,,,0.00,Wunderground v.1.15,2013-03-10 19:01:00,
2013-03-10 13:06:00,46.1,22.5,30.28,ENE,60,5.0,10.0,39,0.00,,,0.00,Wunderground v.1.15,2013-03-10 19:06:00,
2013-03-10 13:12:00,45.5,21.3,30.28,East,80,0.0,7.0,38,0.00,,,0.00,Wunderground v.1.15,2013-03-10 19:12:00,
2013-03-10 13:17:00,45.5,22.5,30.28,East,83,0.0,7.0,40,0.00,,,0.00,Wunderground v.1.15,2013-03-10 19:17:00,
2013-03-10 13:23:00,46.5,22.2,30.27,South,184,0.0,5.0,38,0.00,,,0.00,Wunderground v.1.15,2013-03-10 19:23:00,
2013-03-10 13:30:00,46.6,21.7,30.27,SW,227,3.0,3.0,37,0.00,,,0.00,Wunderground v.1.15,2013-03-10 19:30:00,
2013-03-10 13:35:00,46.1,21.9,30.27,WSW,241,0.0,7.0,38,0.00,,,0.00,Wunderground v.1.15,2013-03-10 19:35:00,
2013-03-10 13:40:00,46.5,22.8,30.27,West,269,2.0,3.0,39,0.00,,,0.00,Wunderground v.1.15,2013-03-10 19:40:00,
2013-03-10 13:47:00,47.7,23.3,30.27,ESE,110,2.0,3.0,38,0.00,,,0.00,Wunderground v.1.15,2013-03-10 19:47:00,
2013-03-10 13:52:00,48.1,22.4,30.26,WNW,283,0.0,1.0,36,0.00,,,0.00,Wunderground v.1.15,2013-03-10 19:52:00,
2013-03-10 13:58:00,48.0,22.3,30.26,SW,223,3.0,4.0,36,0.00,,,0.00,Wunderground v.1.15,2013-03-10 19:58:00,
2013-03-10 14:03:00,47.2,22.9,30.26,WSW,237,2.0,2.0,38,0.00,,,0.00,Wunderground v.1.15,2013-03-10 20:03:00,
2013-03-10 14:08:00,47.4,22.4,30.25,NW,312,4.0,6.0,37,0.00,,,0.00,Wunderground v.1.15,2013-03-10 20:08:00,
2013-03-10 14:14:00,47.3,22.9,30.25,NW,304,2.0,3.0,38,0.00,,,0.00,Wunderground v.1.15,2013-03-10 20:14:00,
2013-03-10 14:19:00,47.7,22.7,30.25,West,269,5.0,7.0,37,0.00,,,0.00,Wunderground v.1.15,2013-03-10 20:19:00,
2013-03-10 14:25:00,47.8,22.8,30.25,NW,306,3.0,6.0,37,0.00,,,0.00,Wunderground v.1.15,2013-03-10 20:25:00,
2013-03-10 14:31:00,48.3,22.5,30.25,West,277,4.0,4.0,36,0.00,,,0.00,Wunderground v.1.15,2013-03-10 20:31:00,
2013-03-10 14:36:00,48.2,22.5,30.25,NNW,327,3.0,5.0,36,0.00,,,0.00,Wunderground v.1.15,2013-03-10 20:36:00,
2013-03-10 14:41:00,48.2,21.1,30.25,WSW,237,1.0,2.0,34,0.00,,,0.00,Wunderground v.1.15,2013-03-10 20:41:00,
2013-03-10 14:47:00,48.2,23.1,30.24,SE,132,0.0,5.0,37,0.00,,,0.00,Wunderground v.1.15,2013-03-10 20:47:00,
2013-03-10 14:52:00,48.5,21.4,30.24,NE,55,1.0,5.0,34,0.00,,,0.00,Wunderground v.1.15,2013-03-10 20:52:00,
2013-03-10 14:57:00,48.8,22.3,30.24,NE,56,0.0,5.0,35,0.00,,,0.00,Wunderground v.1.15,2013-03-10 20:57:00,
2013-03-10 15:02:00,49.0,21.1,30.24,NW,313,5.0,5.0,33,0.00,,,0.00,Wunderground v.1.15,2013-03-10 21:02:00,
2013-03-10 15:07:00,49.3,22.8,30.23,NNW,328,3.0,5.0,35,0.00,,,0.00,Wunderground v.1.15,2013-03-10 21:07:00,
2013-03-10 15:13:00,49.7,23.1,30.24,NNW,328,5.0,7.0,35,0.00,,,0.00,Wunderground v.1.15,2013-03-10 21:13:00,
2013-03-10 15:19:00,49.7,23.1,30.23,SSW,212,3.0,9.0,35,0.00,,,0.00,Wunderground v.1.15,2013-03-10 21:19:00,
2013-03-10 15:24:00,49.9,22.6,30.23,West,271,0.0,6.0,34,0.00,,,0.00,Wunderground v.1.15,2013-03-10 21:24:00,
2013-03-10 15:29:00,49.8,21.8,30.23,WSW,238,1.0,6.0,33,0.00,,,0.00,Wunderground v.1.15,2013-03-10 21:29:00,
2013-03-10 15:35:00,49.7,22.4,30.23,North,355,2.0,7.0,34,0.00,,,0.00,Wunderground v.1.15,2013-03-10 21:35:00,
2013-03-10 15:40:00,50.0,24.1,30.23,NW,319,4.0,4.0,36,0.00,,,0.00,Wunderground v.1.15,2013-03-10 21:40:00,
2013-03-10 15:45:00,49.9,21.9,30.23,NW,313,0.0,6.0,33,0.00,,,0.00,Wunderground v.1.15,2013-03-10 21:45:00,
2013-03-10 15:50:00,49.8,22.5,30.22,NW,313,3.0,3.0,34,0.00,,,0.00,Wunderground v.1.15,2013-03-10 21:50:00,
2013-03-10 15:56:00,50.2,22.9,30.22,NW,323,0.0,5.0,34,0.00,,,0.00,Wunderground v.1.15,2013-03-10 21:56:00,
2013-03-10 16:02:00,51.2,23.0,30.21,West,277,3.0,6.0,33,0.00,,,0.00,Wunderground v.1.15,2013-03-10 22:02:00,
2013-03-10 16:07:00,51.1,22.2,30.21,WSW,238,4.0,6.0,32,0.00,,,0.00,Wunderground v.1.15,2013-03-10 22:07:00,
2013-03-10 16:12:00,50.4,22.3,30.21,NW,315,1.0,4.0,33,0.00,,,0.00,Wunderground v.1.15,2013-03-10 22:12:00,
2013-03-10 16:17:00,50.5,21.7,30.21,SW,235,1.0,5.0,32,0.00,,,0.00,Wunderground v.1.15,2013-03-10 22:17:00,
2013-03-10 16:22:00,50.6,22.5,30.21,SE,136,2.0,3.0,33,0.00,,,0.00,Wunderground v.1.15,2013-03-10 22:22:00,
2013-03-10 16:27:00,51.3,23.1,30.21,WSW,252,1.0,5.0,33,0.00,,,0.00,Wunderground v.1.15,2013-03-10 22:27:00,
2013-03-10 16:33:00,51.5,23.3,30.21,WSW,257,0.0,2.0,33,0.00,,,0.00,Wunderground v.1.15,2013-03-10 22:33:00,
2013-03-10 16:38:00,51.6,22.7,30.20,West,261,0.0,2.0,32,0.00,,,0.00,Wunderground v.1.15,2013-03-10 22:38:00,
2013-03-10 16:44:00,51.7,23.5,30.20,NNW,330,0.0,3.0,33,0.00,,,0.00,Wunderground v.1.15,2013-03-10 22:44:00,
2013-03-10 16:49:00,51.6,23.4,30.20,NW,323,1.0,5.0,33,0.00,,,0.00,Wunderground v.1.15,2013-03-10 22:49:00,
2013-03-10 16:54:00,51.4,23.2,30.20,North,5,4.0,4.0,33,0.00,,,0.00,Wunderground v.1.15,2013-03-10 22:54:00,
2013-03-10 17:00:00,51.2,23.0,30.20,NE,44,2.0,2.0,33,0.00,,,0.00,Wunderground v.1.15,2013-03-10 23:00:00,
2013-03-10 17:05:00,50.9,22.8,30.20,NW,311,1.0,3.0,33,0.00,,,0.00,Wunderground v.1.15,2013-03-10 23:05:00,
2013-03-10 17:10:00,51.1,23.0,30.20,NW,320,0.0,2.0,33,0.00,,,0.00,Wunderground v.1.15,2013-03-10 23:10:00,
2013-03-10 17:16:00,51.2,22.3,30.20,NW,320,0.0,4.0,32,0.00,,,0.00,Wunderground v.1.15,2013-03-10 23:16:00,
2013-03-10 17:21:00,51.2,23.0,30.21,NW,315,1.0,2.0,33,0.00,,,0.00,Wunderground v.1.15,2013-03-10 23:21:00,
2013-03-10 17:28:00,51.3,23.1,30.21,NW,315,1.0,3.0,33,0.00,,,0.00,Wunderground v.1.15,2013-03-10 23:28:00,
2013-03-10 17:33:00,51.4,23.2,30.20,NW,315,0.0,2.0,33,0.00,,,0.00,Wunderground v.1.15,2013-03-10 23:33:00,
2013-03-10 17:39:00,51.2,23.0,30.20,SW,221,1.0,4.0,33,0.00,,,0.00,Wunderground v.1.15,2013-03-10 23:39:00,
2013-03-10 17:44:00,50.6,23.2,30.20,SW,219,0.0,3.0,34,0.00,,,0.00,Wunderground v.1.15,2013-03-10 23:44:00,
2013-03-10 17:50:00,50.9,24.2,30.19,SW,236,1.0,1.0,35,0.00,,,0.00,Wunderground v.1.15,2013-03-10 23:50:00,
2013-03-10 17:55:00,51.1,23.0,30.20,SW,236,0.0,2.0,33,0.00,,,0.00,Wunderground v.1.15,2013-03-10 23:55:00,
2013-03-10 18:00:00,51.1,23.7,30.20,NNE,16,3.0,3.0,34,0.00,,,0.00,Wunderground v.1.15,2013-03-11 00:00:00,
2013-03-10 18:07:00,50.8,23.4,30.20,NNE,18,0.0,3.0,34,0.00,,,0.00,Wunderground v.1.15,2013-03-11 00:07:00,
2013-03-10 18:13:00,50.0,22.7,30.20,NNE,18,0.0,1.0,34,0.00,,,0.00,Wunderground v.1.15,2013-03-11 00:13:00,
2013-03-10 18:18:00,48.9,23.7,30.20,NNE,18,0.0,1.0,37,0.00,,,0.00,Wunderground v.1.15,2013-03-11 00:18:00,
2013-03-10 18:24:00,48.0,23.6,30.19,NNE,18,0.0,0.0,38,0.00,,,0.00,Wunderground v.1.15,2013-03-11 00:24:00,
2013-03-10 18:29:00,47.2,24.1,30.19,NNE,18,0.0,0.0,40,0.00,,,0.00,Wunderground v.1.15,2013-03-11 00:29:00,
2013-03-10 18:35:00,46.6,24.7,30.19,NNE,18,0.0,0.0,42,0.00,,,0.00,Wunderground v.1.15,2013-03-11 00:35:00,
2013-03-10 18:40:00,46.0,24.7,30.18,NNE,18,0.0,0.0,43,0.00,,,0.00,Wunderground v.1.15,2013-03-11 00:40:00,
2013-03-10 18:45:00,45.4,24.7,30.19,NNE,18,0.0,0.0,44,0.00,,,0.00,Wunderground v.1.15,2013-03-11 00:45:00,
2013-03-10 18:51:00,45.0,24.9,30.19,NNE,18,0.0,0.0,45,0.00,,,0.00,Wunderground v.1.15,2013-03-11 00:51:00,
2013-03-10 18:56:00,44.5,24.5,30.19,NNE,18,0.0,0.0,45,0.00,,,0.00,Wunderground v.1.15,2013-03-11 00:56:00,
2013-03-10 19:02:00,44.1,25.6,30.19,NNE,18,0.0,0.0,48,0.00,,,0.00,Wunderground v.1.15,2013-03-11 01:02:00,
2013-03-10 19:07:00,43.4,25.5,30.18,NNE,18,0.0,0.0,49,0.00,,,0.00,Wunderground v.1.15,2013-03-11 01:07:00,
2013-03-10 19:12:00,43.1,25.2,30.18,NNE,18,0.0,0.0,49,0.00,,,0.00,Wunderground v.1.15,2013-03-11 01:12:00,
2013-03-10 19:18:00,42.7,25.8,30.19,NNE,18,0.0,0.0,51,0.00,,,0.00,Wunderground v.1.15,2013-03-11 01:18:00,
2013-03-10 19:23:00,42.4,25.1,30.19,NNE,18,0.0,0.0,50,0.00,,,0.00,Wunderground v.1.15,2013-03-11 01:23:00,
2013-03-10 19:28:00,42.1,24.8,30.19,NNE,18,0.0,0.0,50,0.00,,,0.00,Wunderground v.1.15,2013-03-11 01:28:00,
2013-03-10 19:33:00,41.6,24.8,30.19,NNE,18,0.0,0.0,51,0.00,,,0.00,Wunderground v.1.15,2013-03-11 01:33:00,
2013-03-10 19:38:00,41.2,24.9,30.19,NNE,18,0.0,0.0,52,0.00,,,0.00,Wunderground v.1.15,2013-03-11 01:38:00,
2013-03-10 19:44:00,41.2,24.4,30.19,NNE,18,1.0,1.0,51,0.00,,,0.00,Wunderground v.1.15,2013-03-11 01:44:00,
2013-03-10 19:50:00,41.3,25.4,30.19,NNE,18,0.0,0.0,53,0.00,,,0.00,Wunderground v.1.15,2013-03-11 01:50:00,
2013-03-10 19:55:00,41.0,25.2,30.19,NNE,18,0.0,0.0,53,0.00,,,0.00,Wunderground v.1.15,2013-03-11 01:55:00,
2013-03-10 20:00:00,40.8,24.1,30.19,NNE,18,1.0,1.0,51,0.00,,,0.00,Wunderground v.1.15,2013-03-11 02:00:00,
2013-03-10 20:06:00,41.3,24.0,30.20,NNE,18,0.0,2.0,50,0.00,,,0.00,Wunderground v.1.15,2013-03-11 02:06:00,
2013-03-10 20:11:00,41.6,23.8,30.20,North,5,3.0,3.0,49,0.00,,,0.00,Wunderground v.1.15,2013-03-11 02:11:00,
2013-03-10 20:16:00,42.6,23.8,30.20,SW,217,1.0,5.0,47,0.00,,,0.00,Wunderground v.1.15,2013-03-11 02:16:00,
2013-03-10 20:21:00,43.1,23.7,30.21,SW,226,1.0,2.0,46,0.00,,,0.00,Wunderground v.1.15,2013-03-11 02:21:00,
2013-03-10 20:29:00,43.0,23.6,30.22,SW,227,0.0,3.0,46,0.00,,,0.00,Wunderground v.1.15,2013-03-11 02:29:00,
2013-03-10 20:34:00,43.1,23.7,30.22,SW,228,0.0,4.0,46,0.00,,,0.00,Wunderground v.1.15,2013-03-11 02:34:00,
2013-03-10 20:39:00,43.2,23.3,30.22,SW,227,0.0,4.0,45,0.00,,,0.00,Wunderground v.1.15,2013-03-11 02:39:00,
2013-03-10 20:45:00,43.1,23.2,30.22,SW,227,1.0,1.0,45,0.00,,,0.00,Wunderground v.1.15,2013-03-11 02:45:00,
2013-03-10 20:50:00,42.9,23.5,30.21,SW,227,0.0,0.0,46,0.00,,,0.00,Wunderground v.1.15,2013-03-11 02:50:00,
2013-03-10 20:56:00,42.6,23.2,30.22,SW,227,0.0,2.0,46,0.00,,,0.00,Wunderground v.1.15,2013-03-11 02:56:00,
2013-03-10 21:02:00,42.5,23.2,30.22,SW,227,2.0,2.0,46,0.00,,,0.00,Wunderground v.1.15,2013-03-11 03:02:00,
2013-03-10 21:07:00,42.7,23.3,30.22,SW,228,2.0,4.0,46,0.00,,,0.00,Wunderground v.1.15,2013-03-11 03:07:00,
2013-03-10 21:12:00,42.8,22.9,30.22,SW,227,3.0,4.0,45,0.00,,,0.00,Wunderground v.1.15,2013-03-11 03:12:00,
2013-03-10 21:18:00,42.9,23.0,30.22,SW,219,5.0,5.0,45,0.00,,,0.00,Wunderground v.1.15,2013-03-11 03:18:00,
2013-03-10 21:23:00,43.1,23.2,30.23,SW,219,5.0,5.0,45,0.00,,,0.00,Wunderground v.1.15,2013-03-11 03:23:00,
2013-03-10 21:28:00,42.9,25.0,30.23,NW,319,1.0,5.0,49,0.00,,,0.00,Wunderground v.1.15,2013-03-11 03:28:00,
2013-03-10 21:33:00,42.0,25.6,30.23,NW,319,0.0,2.0,52,0.00,,,0.00,Wunderground v.1.15,2013-03-11 03:33:00,
2013-03-10 21:39:00,40.7,24.4,30.23,NW,319,0.0,2.0,52,0.00,,,0.00,Wunderground v.1.15,2013-03-11 03:39:00,
2013-03-10 21:44:00,40.4,23.7,30.23,NW,319,0.0,0.0,51,0.00,,,0.00,Wunderground v.1.15,2013-03-11 03:44:00,
2013-03-10 21:50:00,40.2,24.9,30.23,NW,319,0.0,0.0,54,0.00,,,0.00,Wunderground v.1.15,2013-03-11 03:50:00,
2013-03-10 21:57:00,39.7,24.8,30.23,NW,319,0.0,2.0,55,0.00,,,0.00,Wunderground v.1.15,2013-03-11 03:57:00,
2013-03-10 22:00:00,39.5,25.1,30.23,NW,318,0.0,0.0,56,0.00,,,0.00,Wunderground v.1.15,2013-03-11 04:00:00,
2013-03-10 22:05:00,38.9,24.5,30.23,NW,318,0.0,2.0,56,0.00,,,0.00,Wunderground v.1.15,2013-03-11 04:05:00,
2013-03-10 22:11:00,38.5,24.6,30.23,NW,319,0.0,0.0,57,0.00,,,0.00,Wunderground v.1.15,2013-03-11 04:11:00,
2013-03-10 22:17:00,38.2,24.3,30.23,NW,318,0.0,0.0,57,0.00,,,0.00,Wunderground v.1.15,2013-03-11 04:17:00,
2013-03-10 22:22:00,37.8,24.3,30.23,NW,319,0.0,0.0,58,0.00,,,0.00,Wunderground v.1.15,2013-03-11 04:22:00,
2013-03-10 22:27:00,37.4,24.4,30.24,NW,318,0.0,0.0,59,0.00,,,0.00,Wunderground v.1.15,2013-03-11 04:27:00,
2013-03-10 22:34:00,37.2,23.8,30.24,NW,319,0.0,1.0,58,0.00,,,0.00,Wunderground v.1.15,2013-03-11 04:34:00,
2013-03-10 22:40:00,37.0,23.6,30.24,NW,319,0.0,0.0,58,0.00,,,0.00,Wunderground v.1.15,2013-03-11 04:40:00,
2013-03-10 22:45:00,36.9,23.9,30.24,NW,319,0.0,2.0,59,0.00,,,0.00,Wunderground v.1.15,2013-03-11 04:45:00,
2013-03-10 22:50:00,36.5,23.9,30.24,NW,318,0.0,0.0,60,0.00,,,0.00,Wunderground v.1.15,2013-03-11 04:50:00,
2013-03-10 22:58:00,36.0,23.4,30.24,NW,319,0.0,1.0,60,0.00,,,0.00,Wunderground v.1.15,2013-03-11 04:58:00,
2013-03-10 23:03:00,36.0,23.8,30.25,NW,318,0.0,0.0,61,0.00,,,0.00,Wunderground v.1.15,2013-03-11 05:03:00,
2013-03-10 23:08:00,36.4,23.8,30.25,NW,319,0.0,1.0,60,0.00,,,0.00,Wunderground v.1.15,2013-03-11 05:08:00,
2013-03-10 23:13:00,36.6,23.6,30.25,NW,319,0.0,1.0,59,0.00,,,0.00,Wunderground v.1.15,2013-03-11 05:13:00,
2013-03-10 23:18:00,36.5,23.5,30.25,NW,318,0.0,1.0,59,0.00,,,0.00,Wunderground v.1.15,2013-03-11 05:18:00,
2013-03-10 23:23:00,36.4,23.8,30.25,NW,319,0.0,2.0,60,0.00,,,0.00,Wunderground v.1.15,2013-03-11 05:23:00,
2013-03-10 23:28:00,36.3,23.7,30.25,NW,318,0.0,2.0,60,0.00,,,0.00,Wunderground v.1.15,2013-03-11 05:28:00,
2013-03-10 23:33:00,36.1,23.5,30.24,NW,319,0.0,0.0,60,0.00,,,0.00,Wunderground v.1.15,2013-03-11 05:33:00,
2013-03-10 23:38:00,36.2,23.6,30.24,NW,318,0.0,0.0,60,0.00,,,0.00,Wunderground v.1.15,2013-03-11 05:38:00,
2013-03-10 23:43:00,36.3,23.7,30.24,NW,319,0.0,1.0,60,0.00,,,0.00,Wunderground v.1.15,2013-03-11 05:43:00,
2013-03-10 23:49:00,36.7,23.7,30.24,NW,319,0.0,1.0,59,0.00,,,0.00,Wunderground v.1.15,2013-03-11 05:49:00,
2013-03-10 23:54:00,37.0,24.0,30.24,NW,319,0.0,1.0,59,0.00,,,0.00,Wunderground v.1.15,2013-03-11 05:54:00,
2013-03-10 23:59:00,37.3,23.9,30.24,NW,319,1.0,2.0,58,0.00,,,0.00,Wunderground v.1.15,2013-03-11 05:59:00,